createdAt,value
2022-12-18T00:02:13.657Z,92.95
2022-12-18T00:04:40.380Z,91.55
2022-12-18T00:07:07.104Z,96.18
2022-12-18T00:09:39.975Z,89.57
2022-12-18T00:14:43.117Z,93.78
2022-12-18T00:17:10.163Z,93.63
2022-12-18T00:19:36.889Z,91.70
2022-12-18T00:22:03.817Z,88.53
2022-12-18T00:24:30.508Z,89.60
2022-12-18T00:26:57.188Z,97.10
2022-12-18T00:29:24.024Z,85.95
2022-12-18T00:31:50.793Z,87.50
2022-12-18T00:34:17.563Z,84.72
2022-12-18T00:36:44.295Z,89.78
2022-12-18T00:39:11.753Z,88.22
2022-12-18T00:41:57.085Z,85.53
2022-12-18T00:44:23.733Z,83.78
2022-12-18T00:46:50.635Z,79.70
2022-12-18T00:49:18.920Z,79.90
2022-12-18T00:51:46.469Z,79.85
2022-12-18T00:54:13.174Z,86.03
2022-12-18T00:56:48.476Z,87.80
2022-12-18T00:59:16.477Z,89.25
2022-12-18T01:01:43.817Z,83.68
2022-12-18T01:04:10.660Z,84.47
2022-12-18T01:06:37.347Z,84.30
2022-12-18T01:09:04.359Z,83.75
2022-12-18T01:11:31.586Z,81.35
2022-12-18T01:13:58.253Z,78.60
2022-12-18T01:16:24.962Z,81.20
2022-12-18T01:18:55.646Z,86.00
2022-12-18T01:21:22.970Z,82.35
2022-12-18T01:23:53.420Z,78.38
2022-12-18T01:26:20.311Z,81.35
2022-12-18T01:28:47.028Z,81.25
2022-12-18T01:31:29.290Z,73.68
2022-12-18T01:33:56.756Z,85.93
2022-12-18T01:36:31.267Z,75.57
2022-12-18T01:38:59.973Z,74.95
2022-12-18T01:41:52.894Z,79.50
2022-12-18T01:44:47.684Z,69.88
2022-12-18T01:47:54.038Z,75.75
2022-12-18T01:50:23.223Z,80.30
2022-12-18T01:52:57.927Z,80.57
2022-12-18T01:55:26.358Z,72.63
2022-12-18T01:57:57.937Z,76.65
2022-12-18T02:00:24.989Z,77.47
2022-12-18T02:02:52.346Z,82.05
2022-12-18T02:05:23.950Z,79.28
2022-12-18T02:08:15.587Z,89.65
2022-12-18T02:10:54.275Z,84.40
2022-12-18T02:13:42.144Z,86.47
2022-12-18T02:16:40.996Z,83.45
2022-12-18T02:19:25.628Z,83.88
2022-12-18T02:22:18.729Z,88.75
2022-12-18T02:25:13.486Z,82.60
2022-12-18T02:27:40.487Z,81.90
2022-12-18T02:30:08.041Z,80.28
2022-12-18T02:32:41.496Z,81.43
2022-12-18T02:35:12.546Z,66.40
2022-12-18T02:37:39.254Z,73.50
2022-12-18T02:40:06.524Z,83.93
2022-12-18T02:42:33.273Z,76.55
2022-12-18T02:44:59.982Z,78.03
2022-12-18T02:47:31.332Z,81.82
2022-12-18T02:50:10.319Z,76.47
2022-12-18T02:52:37.343Z,81.10
2022-12-18T02:55:28.322Z,79.60
2022-12-18T02:58:04.754Z,78.28
2022-12-18T03:00:41.642Z,76.28
2022-12-18T03:03:13.053Z,72.45
2022-12-18T03:05:53.900Z,75.10
2022-12-18T03:08:23.221Z,74.07
2022-12-18T03:11:11.459Z,71.35
2022-12-18T03:13:53.600Z,72.60
2022-12-18T03:16:25.636Z,73.70
2022-12-18T03:19:03.247Z,72.65
2022-12-18T03:21:42.249Z,66.90
2022-12-18T03:24:09.435Z,70.07
2022-12-18T03:26:36.984Z,68.75
2022-12-18T03:29:08.965Z,69.40
2022-12-18T03:31:35.598Z,69.63
2022-12-18T03:34:03.741Z,71.47
2022-12-18T03:36:30.412Z,72.63
2022-12-18T03:38:57.063Z,70.38
2022-12-18T03:41:35.128Z,73.15
2022-12-18T03:44:19.554Z,72.30
2022-12-18T03:47:05.128Z,72.95
2022-12-18T03:49:41.934Z,70.82
2022-12-18T03:52:12.060Z,80.43
2022-12-18T03:54:38.774Z,68.05
2022-12-18T03:57:21.007Z,69.03
2022-12-18T03:59:48.813Z,58.43
2022-12-18T04:02:16.547Z,70.00
2022-12-18T04:04:43.272Z,69.90
2022-12-18T04:07:28.461Z,68.07
2022-12-18T04:09:57.509Z,67.95
2022-12-18T04:12:27.588Z,63.55
2022-12-18T04:14:54.247Z,62.15
2022-12-18T04:17:21.383Z,62.22
2022-12-18T04:19:48.051Z,65.43
2022-12-18T04:22:14.844Z,58.38
2022-12-18T04:24:41.493Z,62.75
2022-12-18T04:27:08.221Z,64.07
2022-12-18T04:29:34.879Z,64.00
2022-12-18T04:32:01.714Z,60.63
2022-12-18T04:34:28.424Z,62.92
2022-12-18T04:36:55.121Z,59.00
2022-12-18T04:39:21.784Z,60.33
2022-12-18T04:41:48.459Z,61.08
2022-12-18T04:44:15.230Z,66.57
2022-12-18T04:46:42.159Z,60.72
2022-12-18T04:49:09.037Z,61.58
2022-12-18T04:51:35.680Z,61.08
2022-12-18T04:54:02.668Z,60.60
2022-12-18T04:56:29.454Z,64.43
2022-12-18T04:58:56.181Z,60.83
2022-12-18T05:01:23.090Z,56.47
2022-12-18T05:03:49.993Z,59.58
2022-12-18T05:06:16.693Z,60.22
2022-12-18T05:08:43.397Z,57.28
2022-12-18T05:11:12.100Z,54.92
2022-12-18T05:13:39.541Z,57.40
2022-12-18T05:16:07.120Z,58.78
2022-12-18T05:18:34.075Z,61.45
2022-12-18T05:21:00.751Z,57.38
2022-12-18T05:23:27.819Z,51.67
2022-12-18T05:25:56.313Z,54.30
2022-12-18T05:28:23.485Z,50.92
2022-12-18T05:30:51.694Z,52.67
2022-12-18T05:33:21.793Z,52.70
2022-12-18T05:35:55.792Z,49.58
2022-12-18T05:38:23.379Z,51.92
2022-12-18T05:40:50.807Z,55.38
2022-12-18T05:43:21.207Z,54.35
2022-12-18T05:45:48.617Z,56.47
2022-12-18T05:48:16.115Z,57.08
2022-12-18T05:50:44.972Z,54.08
2022-12-18T05:53:11.760Z,61.15
2022-12-18T05:55:39.945Z,54.50
2022-12-18T05:58:07.444Z,58.30
2022-12-18T06:00:35.996Z,56.75
2022-12-18T06:03:03.305Z,54.03
2022-12-18T06:05:30.092Z,52.17
2022-12-18T06:07:56.743Z,56.33
2022-12-18T06:10:23.470Z,57.92
2022-12-18T06:12:50.177Z,61.63
2022-12-18T06:15:16.946Z,61.40
2022-12-18T06:17:43.875Z,63.65
2022-12-18T06:20:11.313Z,64.45
2022-12-18T06:22:38.074Z,59.67
2022-12-18T06:25:05.569Z,61.72
2022-12-18T06:27:34.986Z,61.08
2022-12-18T06:30:01.963Z,61.80
2022-12-18T06:32:32.142Z,64.00
2022-12-18T06:34:59.018Z,64.95
2022-12-18T06:37:27.236Z,59.63
2022-12-18T06:39:55.409Z,59.45
2022-12-18T06:42:22.153Z,58.22
2022-12-18T06:44:48.874Z,56.22
2022-12-18T06:47:15.663Z,62.20
2022-12-18T06:49:42.548Z,60.45
2022-12-18T06:52:09.972Z,64.95
2022-12-18T06:54:36.910Z,61.45
2022-12-18T06:57:04.519Z,64.63
2022-12-18T06:59:31.181Z,58.10
2022-12-18T07:01:57.881Z,54.95
2022-12-18T07:04:31.636Z,56.33
2022-12-18T07:06:58.633Z,52.88
2022-12-18T07:09:25.679Z,55.38
2022-12-18T07:11:53.341Z,60.38
2022-12-18T07:14:20.297Z,56.47
2022-12-18T07:16:47.179Z,61.83
2022-12-18T07:19:14.023Z,67.45
2022-12-18T07:21:40.790Z,58.90
2022-12-18T07:24:07.802Z,62.17
2022-12-18T07:26:34.496Z,63.13
2022-12-18T07:29:01.480Z,56.28
2022-12-18T07:31:28.514Z,61.55
2022-12-18T07:33:55.415Z,63.08
2022-12-18T07:36:22.174Z,62.28
2022-12-18T07:38:50.093Z,66.68
2022-12-18T07:41:17.403Z,64.20
2022-12-18T07:43:44.639Z,63.13
2022-12-18T07:46:13.549Z,65.68
2022-12-18T07:48:41.949Z,61.95
2022-12-18T07:51:09.054Z,63.25
2022-12-18T07:53:36.883Z,64.63
2022-12-18T07:56:26.593Z,65.38
2022-12-18T07:58:53.125Z,61.85
2022-12-18T08:01:19.900Z,64.10
2022-12-18T08:03:48.157Z,62.55
2022-12-18T08:06:14.949Z,64.50
2022-12-18T08:08:43.293Z,68.50
2022-12-18T08:11:10.068Z,66.10
2022-12-18T08:13:37.094Z,70.72
2022-12-18T08:16:06.275Z,66.68
2022-12-18T08:18:36.905Z,69.68
2022-12-18T08:21:14.764Z,69.30
2022-12-18T08:23:43.262Z,67.20
2022-12-18T08:26:13.940Z,70.95
2022-12-18T08:28:41.297Z,63.03
2022-12-18T08:31:08.600Z,71.88
2022-12-18T08:33:35.901Z,70.15
2022-12-18T08:36:03.052Z,69.22
2022-12-18T08:38:29.810Z,71.78
2022-12-18T08:41:01.241Z,65.15
2022-12-18T08:43:46.774Z,70.20
2022-12-18T08:46:13.673Z,68.45
2022-12-18T08:48:40.382Z,62.92
2022-12-18T08:51:07.286Z,62.70
2022-12-18T08:53:35.800Z,63.95
2022-12-18T08:56:03.385Z,65.95
2022-12-18T08:58:30.410Z,61.90
2022-12-18T09:01:04.401Z,67.63
2022-12-18T09:03:32.197Z,65.80
2022-12-18T09:05:58.965Z,72.47
2022-12-18T09:08:25.697Z,66.95
2022-12-18T09:10:53.060Z,68.50
2022-12-18T09:13:21.155Z,65.78
2022-12-18T09:15:50.255Z,64.35
2022-12-18T09:18:18.831Z,65.03
2022-12-18T09:20:47.315Z,62.95
2022-12-18T09:23:14.869Z,65.85
2022-12-18T09:25:42.353Z,67.22
2022-12-18T09:28:14.717Z,67.57
2022-12-18T09:30:44.497Z,51.55
2022-12-18T09:33:12.023Z,62.25
2022-12-18T09:35:40.287Z,61.72
2022-12-18T09:38:07.862Z,55.97
2022-12-18T09:40:38.330Z,66.65
2022-12-18T09:43:07.404Z,58.50
2022-12-18T09:45:48.457Z,58.45
2022-12-18T09:48:32.508Z,62.80
2022-12-18T09:51:02.942Z,57.08
2022-12-18T09:53:34.800Z,64.63
2022-12-18T09:56:03.909Z,59.25
2022-12-18T09:58:37.818Z,62.97
2022-12-18T10:01:22.218Z,60.40
2022-12-18T10:03:49.338Z,57.88
2022-12-18T10:06:42.487Z,61.33
2022-12-18T10:09:38.447Z,63.45
2022-12-18T10:12:20.759Z,61.00
2022-12-18T10:15:08.363Z,55.30
2022-12-18T10:17:57.097Z,57.55
2022-12-18T10:20:36.875Z,56.45
2022-12-18T10:23:28.309Z,63.58
2022-12-18T10:26:07.251Z,62.33
2022-12-18T10:28:43.882Z,56.92
2022-12-18T10:31:19.153Z,55.67
2022-12-18T10:33:45.949Z,54.22
2022-12-18T10:36:12.659Z,58.08
2022-12-18T10:38:39.990Z,61.33
2022-12-18T10:41:27.428Z,63.00
2022-12-18T10:44:21.383Z,66.80
2022-12-18T10:46:50.309Z,64.85
2022-12-18T10:49:47.328Z,64.90
2022-12-18T10:52:21.062Z,60.78
2022-12-18T10:54:59.301Z,58.97
2022-12-18T10:57:38.028Z,57.55
2022-12-18T11:00:26.137Z,61.65
2022-12-18T11:02:53.406Z,57.17
2022-12-18T11:05:46.734Z,53.95
2022-12-18T11:08:22.510Z,60.28
2022-12-18T11:10:49.128Z,60.72
2022-12-18T11:13:20.246Z,63.42
2022-12-18T11:15:46.953Z,62.05
2022-12-18T11:18:20.244Z,57.75
2022-12-18T11:20:58.544Z,52.65
2022-12-18T11:23:25.644Z,48.45
2022-12-18T11:25:59.115Z,49.35
2022-12-18T11:28:42.717Z,50.30
2022-12-18T11:31:23.742Z,49.78
2022-12-18T11:34:28.456Z,45.97
2022-12-18T11:36:45.964Z,54.92
2022-12-18T11:39:31.815Z,51.65
2022-12-18T11:42:25.528Z,47.40
2022-12-18T11:45:13.980Z,48.63
2022-12-18T11:47:43.289Z,44.80
2022-12-18T11:50:31.509Z,40.08
2022-12-18T11:53:02.853Z,40.90
2022-12-18T11:55:42.769Z,40.75
2022-12-18T11:58:31.537Z,42.10
2022-12-18T12:01:30.997Z,40.80
2022-12-18T12:04:16.050Z,40.03
2022-12-18T12:07:03.351Z,40.25
2022-12-18T12:09:33.889Z,43.13
2022-12-18T12:12:28.535Z,40.85
2022-12-18T12:15:11.549Z,39.03
2022-12-18T12:17:56.001Z,37.72
2022-12-18T12:20:54.138Z,34.85
2022-12-18T12:23:29.704Z,38.42
2022-12-18T12:26:13.117Z,41.55
2022-12-18T12:31:19.332Z,38.60
2022-12-18T12:34:06.381Z,38.17
2022-12-18T12:37:02.370Z,43.17
2022-12-18T12:39:41.461Z,39.22
2022-12-18T12:42:47.685Z,39.88
2022-12-18T12:45:22.882Z,38.65
2022-12-18T12:47:49.764Z,41.15
2022-12-18T12:50:18.747Z,39.03
2022-12-18T12:52:47.974Z,38.08
2022-12-18T12:55:24.180Z,39.08
2022-12-18T12:58:04.324Z,40.33
2022-12-18T13:00:37.111Z,63.67
2022-12-18T13:03:17.242Z,62.63
2022-12-18T13:05:47.599Z,57.55
2022-12-18T13:08:28.125Z,53.08
2022-12-18T13:11:20.059Z,51.90
2022-12-18T13:13:51.019Z,49.20
2022-12-18T13:16:22.506Z,49.95
2022-12-18T13:18:51.167Z,46.83
2022-12-18T13:21:30.646Z,47.65
2022-12-18T13:23:58.447Z,47.53
2022-12-18T13:26:28.805Z,46.58
2022-12-18T13:28:57.458Z,45.95
2022-12-18T13:31:43.536Z,47.13
2022-12-18T13:34:27.503Z,50.67
2022-12-18T13:37:00.743Z,45.03
2022-12-18T13:39:35.906Z,48.07
2022-12-18T13:42:06.795Z,46.65
2022-12-18T13:44:39.943Z,48.33
2022-12-18T13:47:36.932Z,47.33
2022-12-18T13:50:11.521Z,47.47
2022-12-18T13:52:38.938Z,59.08
2022-12-18T13:55:08.578Z,48.53
2022-12-18T13:57:39.577Z,50.13
2022-12-18T14:00:26.740Z,48.33
2022-12-18T14:02:53.771Z,53.78
2022-12-18T14:05:28.564Z,50.88
2022-12-18T14:07:57.038Z,47.53
2022-12-18T14:10:47.605Z,51.22
2022-12-18T14:13:12.414Z,59.08
2022-12-18T14:15:47.159Z,54.95
2022-12-18T14:18:27.923Z,54.17
2022-12-18T14:20:58.182Z,60.65
2022-12-18T14:23:37.156Z,57.05
2022-12-18T14:26:20.474Z,54.95
2022-12-18T14:28:47.713Z,50.72
2022-12-18T14:31:23.133Z,53.78
2022-12-18T14:33:50.717Z,52.20
2022-12-18T14:36:19.455Z,47.50
2022-12-18T14:38:50.842Z,47.25
2022-12-18T14:41:19.085Z,45.45
2022-12-18T14:43:48.836Z,50.05
2022-12-18T14:46:36.337Z,47.05
2022-12-18T14:49:05.611Z,44.42
2022-12-18T14:51:35.411Z,51.33
2022-12-18T14:54:10.905Z,43.00
2022-12-18T14:56:44.576Z,43.30
2022-12-18T14:59:23.808Z,45.30
2022-12-18T15:02:03.232Z,42.38
2022-12-18T15:04:34.859Z,42.30
2022-12-18T15:07:22.040Z,45.25
2022-12-18T15:10:10.131Z,49.67
2022-12-18T15:12:37.883Z,46.83
2022-12-18T15:15:05.759Z,48.05
2022-12-18T15:17:32.526Z,44.08
2022-12-18T15:20:04.991Z,46.08
2022-12-18T15:22:35.236Z,41.85
2022-12-18T15:25:01.963Z,50.33
2022-12-18T15:27:31.883Z,48.42
2022-12-18T15:30:10.778Z,47.17
2022-12-18T15:32:38.320Z,46.33
2022-12-18T15:35:18.268Z,48.00
2022-12-18T15:37:45.298Z,48.92
2022-12-18T15:40:20.728Z,50.72
2022-12-18T15:43:20.171Z,44.20
2022-12-18T15:45:46.824Z,51.90
2022-12-18T15:48:22.832Z,48.20
2022-12-18T15:50:53.998Z,47.28
2022-12-18T15:53:20.728Z,47.03
2022-12-18T15:56:05.841Z,54.55
2022-12-18T15:58:33.985Z,48.65
2022-12-18T16:01:01.454Z,46.65
2022-12-18T16:03:29.485Z,53.20
2022-12-18T16:05:56.383Z,53.03
2022-12-18T16:08:24.467Z,51.35
2022-12-18T16:10:51.123Z,55.17
2022-12-18T16:13:17.809Z,52.05
2022-12-18T16:15:44.546Z,55.13
2022-12-18T16:18:11.342Z,49.35
2022-12-18T16:20:38.319Z,57.08
2022-12-18T16:23:05.279Z,63.90
2022-12-18T16:25:32.130Z,57.15
2022-12-18T16:27:58.991Z,54.92
2022-12-18T16:30:29.426Z,49.38
2022-12-18T16:32:59.999Z,49.80
2022-12-18T16:35:27.519Z,45.92
2022-12-18T16:37:54.367Z,51.08
2022-12-18T16:40:21.124Z,48.67
2022-12-18T16:42:47.900Z,47.83
2022-12-18T16:45:17.229Z,48.08
2022-12-18T16:47:43.996Z,49.78
2022-12-18T16:50:11.082Z,50.53
2022-12-18T16:52:38.428Z,48.15
2022-12-18T16:55:05.638Z,45.60
2022-12-18T16:57:32.334Z,49.22
2022-12-18T17:00:04.685Z,53.40
2022-12-18T17:02:32.812Z,52.92
2022-12-18T17:04:59.729Z,48.00
2022-12-18T17:07:27.107Z,46.97
2022-12-18T17:09:54.351Z,46.58
2022-12-18T17:12:21.668Z,52.30
2022-12-18T17:14:48.671Z,49.08
2022-12-18T17:17:23.813Z,44.47
2022-12-18T17:19:53.243Z,43.10
2022-12-18T17:22:21.151Z,44.50
2022-12-18T17:24:47.861Z,47.97
2022-12-18T17:27:15.038Z,47.28
2022-12-18T17:29:47.415Z,43.38
2022-12-18T17:32:16.001Z,46.50
2022-12-18T17:34:42.671Z,44.30
2022-12-18T17:37:09.570Z,43.33
2022-12-18T17:39:36.337Z,48.15
2022-12-18T17:42:03.245Z,43.88
2022-12-18T17:44:30.119Z,42.72
2022-12-18T17:46:56.980Z,44.03
2022-12-18T17:49:23.694Z,48.45
2022-12-18T17:51:51.620Z,41.50
2022-12-18T17:54:18.289Z,41.92
2022-12-18T17:56:44.991Z,49.25
2022-12-18T17:59:13.398Z,43.15
2022-12-18T18:01:44.450Z,39.63
2022-12-18T18:04:15.455Z,41.88
2022-12-18T18:06:42.378Z,42.38
2022-12-18T18:09:16.190Z,43.42
2022-12-18T18:12:05.989Z,42.70
2022-12-18T18:14:33.174Z,44.50
2022-12-18T18:17:04.150Z,41.45
2022-12-18T18:19:32.277Z,39.90
2022-12-18T18:21:59.202Z,41.85
2022-12-18T18:24:26.503Z,41.60
2022-12-18T18:26:59.612Z,42.72
2022-12-18T18:29:27.768Z,43.35
2022-12-18T18:31:56.098Z,44.50
2022-12-18T18:34:25.125Z,48.33
2022-12-18T18:36:52.245Z,41.60
2022-12-18T18:39:21.605Z,43.25
2022-12-18T18:41:48.949Z,40.50
2022-12-18T18:44:17.788Z,42.60
2022-12-18T18:46:45.074Z,48.30
2022-12-18T18:49:13.848Z,45.13
2022-12-18T18:51:42.037Z,46.08
2022-12-18T18:54:09.663Z,47.35
2022-12-18T18:57:04.146Z,41.63
2022-12-18T18:59:31.888Z,42.75
2022-12-18T19:02:04.029Z,43.53
2022-12-18T19:04:33.574Z,46.70
2022-12-18T19:07:01.180Z,45.00
2022-12-18T19:09:30.187Z,42.75
2022-12-18T19:12:16.371Z,41.75
2022-12-18T19:14:44.441Z,42.05
2022-12-18T19:17:11.964Z,45.67
2022-12-18T19:19:39.557Z,48.92
2022-12-18T19:22:07.222Z,47.60
2022-12-18T19:24:34.481Z,42.90
2022-12-18T19:27:01.799Z,44.13
2022-12-18T19:29:28.998Z,43.25
2022-12-18T19:31:56.182Z,41.90
2022-12-18T19:34:23.550Z,42.47
2022-12-18T19:36:54.027Z,42.35
2022-12-18T19:41:52.086Z,45.30
2022-12-18T19:44:19.456Z,47.53
2022-12-18T19:46:46.934Z,43.58
2022-12-18T19:49:17.691Z,42.85
2022-12-18T19:52:01.593Z,39.28
2022-12-18T19:54:28.223Z,42.58
2022-12-18T19:56:54.930Z,48.13
2022-12-18T19:59:21.616Z,42.50
2022-12-18T20:04:32.151Z,44.97
2022-12-18T20:06:59.158Z,42.40
2022-12-18T20:09:26.089Z,41.63
2022-12-18T20:11:53.098Z,41.00
2022-12-18T20:14:22.673Z,46.00
2022-12-18T20:16:50.783Z,44.10
2022-12-18T20:19:18.477Z,42.42
2022-12-18T20:21:45.934Z,41.75
2022-12-18T20:24:13.123Z,39.22
2022-12-18T20:26:42.470Z,43.88
2022-12-18T20:29:09.299Z,45.15
2022-12-18T20:31:36.134Z,40.92
2022-12-18T20:34:05.024Z,40.75
2022-12-18T20:36:37.695Z,39.22
2022-12-18T20:39:06.409Z,38.28
2022-12-18T20:41:38.001Z,36.35
2022-12-18T20:44:13.431Z,36.10
2022-12-18T20:46:55.568Z,40.97
2022-12-18T20:49:22.835Z,40.08
2022-12-18T20:51:53.312Z,37.88
2022-12-18T20:54:21.095Z,39.20
2022-12-18T20:56:47.841Z,42.60
2022-12-18T20:59:14.570Z,38.40
2022-12-18T21:01:48.639Z,39.75
2022-12-18T21:04:17.429Z,43.75
2022-12-18T21:06:49.628Z,43.17
2022-12-18T21:09:20.473Z,48.63
2022-12-18T21:12:05.723Z,43.00
2022-12-18T21:14:32.530Z,40.45
2022-12-18T21:17:03.112Z,42.83
2022-12-18T21:19:30.113Z,40.13
2022-12-18T21:21:57.512Z,39.95
2022-12-18T21:24:25.058Z,42.13
2022-12-18T21:26:54.245Z,40.20
2022-12-18T21:29:24.853Z,44.10
2022-12-18T21:31:53.729Z,45.67
2022-12-18T21:34:30.943Z,45.95
2022-12-18T21:36:59.036Z,44.65
2022-12-18T21:39:26.707Z,40.33
2022-12-18T21:42:12.938Z,36.38
2022-12-18T21:44:42.069Z,41.88
2022-12-18T21:47:22.201Z,38.15
2022-12-18T21:49:52.080Z,43.33
2022-12-18T21:52:18.897Z,40.22
2022-12-18T21:54:45.642Z,43.63
2022-12-18T21:57:13.811Z,46.28
2022-12-18T21:59:41.902Z,42.03
2022-12-18T22:02:19.780Z,40.25
2022-12-18T22:04:47.167Z,37.60
2022-12-18T22:07:15.015Z,39.53
2022-12-18T22:09:42.028Z,42.45
2022-12-18T22:12:10.236Z,38.72
2022-12-18T22:14:36.893Z,40.92
2022-12-18T22:17:03.974Z,42.95
2022-12-18T22:19:31.869Z,38.20
2022-12-18T22:21:58.587Z,39.45
2022-12-18T22:24:26.739Z,40.45
2022-12-18T22:26:55.836Z,39.53
2022-12-18T22:29:47.038Z,38.42
2022-12-18T22:32:16.506Z,40.80
2022-12-18T22:34:45.063Z,43.45
2022-12-18T22:37:14.877Z,44.78
2022-12-18T22:39:41.601Z,45.85
2022-12-18T22:42:08.513Z,45.35
2022-12-18T22:44:35.243Z,44.20
2022-12-18T22:47:06.802Z,43.88
2022-12-18T22:49:35.240Z,45.85
2022-12-18T22:52:04.702Z,45.45
2022-12-18T22:54:31.409Z,39.15
2022-12-18T22:56:58.154Z,42.92
2022-12-18T22:59:24.962Z,40.85
2022-12-18T23:01:58.523Z,43.05
2022-12-18T23:04:36.024Z,39.78
2022-12-18T23:07:05.191Z,38.90
2022-12-18T23:09:32.250Z,42.40
2022-12-18T23:11:59.094Z,42.92
2022-12-18T23:14:25.982Z,38.70
2022-12-18T23:16:53.223Z,40.30
2022-12-18T23:19:20.649Z,45.13
2022-12-18T23:21:47.443Z,41.97
2022-12-18T23:24:14.450Z,45.00
2022-12-18T23:26:41.274Z,46.17
2022-12-18T23:29:08.001Z,41.10
2022-12-18T23:31:39.311Z,41.33
2022-12-18T23:34:06.935Z,41.22
2022-12-18T23:36:45.915Z,41.50
2022-12-18T23:39:17.986Z,41.25
2022-12-18T23:41:56.274Z,41.27
2022-12-18T23:44:23.037Z,38.65
2022-12-18T23:46:49.736Z,44.92
2022-12-18T23:49:16.515Z,43.00
2022-12-18T23:51:43.488Z,45.10
2022-12-18T23:54:10.524Z,46.55
2022-12-18T23:56:37.198Z,40.67
2022-12-18T23:59:03.905Z,42.20
